Αρχική σελίδα
METAR-TAF:

METAR-TAF

Αεροδρόμια :

Foz do Iguaçu, Παρανά, Βραζιλία

γεωγραφικό πλάτος: 25-31S, γεωγραφικό μήκος: 054-35W, υψόμετρο: 180 μ

Παρών καιρός

Η αναφορά έγινε 1 ώρα και 2 λεπτά πριν, στις 11:00 UTC
Άνεμος 12 kt από Α
Θερμοκρασία 18°C
Υγρασία 77%
Πίεση 1011 hPa
Ορατότητα 10 χλμ και άνω
Δεν υπάρχουν νέφη με βάση κάτω από τα 1500 μ. και δεν υπάρχουν νέφη σωρειτομελανίτες.

METAR: SBFI 221100Z 09012KT CAVOK 18/14 Q1011

Χρόνος: 09:02 (12:02 UTC)

Πρόγνωση Καιρού

Η αναφορά έγινε 3 ώρες και 2 λεπτά πριν, στις 09:00 UTC
Η πρόγνωση ισχύει από τις 22 στις 12 UTC έως τις 23 στις 12 UTC
Άνεμος 7 kt από Α/BA
Ορατότητα 10 χλμ και άνω
Δεν υπάρχουν νέφη με βάση κάτω από τα 1500 μ. και δεν υπάρχουν νέφη σωρειτομελανίτες.

TAF: SBFI 220900Z 2212/2312 07007KT CAVOK TX27/2217Z TN21/2309Z RMK PEC

Μετεωρολογικές αναφορές και προγνώσεις για περισσότερα από 4000 αεροδρόμια (δελτία METAR και TAF).

Οι διαθέσιμοι σταθμοί απεικονίζονται στο χάρτη με κίτρινες και κόκκινες κουκκίδες.

Μετακινήστε το ποντίκι πάνω από τις κουκκίδες για να δείτε το όνομα του σταθμού.

Στη συνέχεια, κάντε κλικ για να δείτε τις μετεωρολογικές αναφορές και τις προγνώσεις καιρού.

Για να αλλάξετε το χάρτη: κάντε κλικ στα πράσινα κουμπιά με τον μαύρο σταυρό για να ζουμάρετε, στο πράσινο κουμπί με την παύλα για να αφαιρέσετε το ζουμ ή στα πράσινα βέλη για να αντιπαραβάλλετε χάρτες.


METAR-TAF: